createdAt,value
2017-11-30T00:01:03.731Z,3.50
2017-11-30T00:03:30.222Z,3.50
2017-11-30T00:05:56.613Z,3.50
2017-11-30T00:08:23.730Z,3.50
2017-11-30T00:10:50.056Z,3.50
2017-11-30T00:13:16.414Z,3.50
2017-11-30T00:15:43.524Z,3.50
2017-11-30T00:18:10.056Z,3.50
2017-11-30T00:20:36.397Z,3.60
2017-11-30T00:23:02.713Z,3.60
2017-11-30T00:25:29.106Z,3.50
2017-11-30T00:27:55.451Z,3.50
2017-11-30T00:30:22.349Z,3.60
2017-11-30T00:32:48.817Z,3.50
2017-11-30T00:35:15.256Z,3.50
2017-11-30T00:37:41.650Z,3.50
2017-11-30T00:40:08.656Z,3.50
2017-11-30T00:42:47.277Z,3.50
2017-11-30T00:45:13.710Z,3.50
2017-11-30T00:47:40.102Z,3.40
2017-11-30T00:50:08.301Z,3.50
2017-11-30T00:52:34.702Z,3.50
2017-11-30T00:55:01.937Z,3.50
2017-11-30T00:57:29.068Z,3.50
2017-11-30T00:59:55.504Z,3.50
2017-11-30T01:02:21.849Z,3.50
2017-11-30T01:04:48.941Z,3.50
2017-11-30T01:07:15.242Z,3.50
2017-11-30T01:09:41.945Z,3.60
2017-11-30T01:12:08.260Z,3.60
2017-11-30T01:14:34.617Z,3.60
2017-11-30T01:17:01.805Z,3.70
2017-11-30T01:19:28.093Z,3.70
2017-11-30T01:21:55.302Z,3.60
2017-11-30T01:24:21.701Z,3.60
2017-11-30T01:26:48.110Z,3.60
2017-11-30T01:29:15.229Z,3.70
2017-11-30T01:31:41.553Z,3.70
2017-11-30T01:34:07.877Z,3.70
2017-11-30T01:36:34.223Z,3.70
2017-11-30T01:39:00.734Z,3.70
2017-11-30T01:41:27.125Z,3.70
2017-11-30T01:43:53.478Z,3.70
2017-11-30T01:46:19.740Z,3.70
2017-11-30T01:48:46.085Z,3.70
2017-11-30T01:51:13.966Z,3.50
2017-11-30T01:53:41.069Z,3.50
2017-11-30T01:56:07.482Z,3.50
2017-11-30T01:58:34.055Z,3.30
2017-11-30T02:01:00.473Z,3.10
2017-11-30T02:03:27.229Z,2.80
2017-11-30T02:05:53.570Z,2.70
2017-11-30T02:08:20.637Z,2.40
2017-11-30T02:10:47.751Z,2.10
2017-11-30T02:13:15.367Z,2.10
2017-11-30T02:15:41.717Z,1.90
2017-11-30T02:18:08.369Z,1.80
2017-11-30T02:20:34.685Z,1.60
2017-11-30T02:23:01.002Z,1.50
2017-11-30T02:25:27.293Z,1.40
2017-11-30T02:27:54.415Z,1.20
2017-11-30T02:30:20.865Z,1.20
2017-11-30T02:32:48.098Z,1.00
2017-11-30T02:35:14.569Z,1.00
2017-11-30T02:37:41.581Z,1.00
2017-11-30T02:40:07.944Z,0.90
2017-11-30T02:42:34.318Z,0.90
2017-11-30T02:45:00.672Z,0.80
2017-11-30T02:47:27.160Z,0.80
2017-11-30T02:49:53.781Z,0.70
2017-11-30T02:52:20.750Z,0.70
2017-11-30T02:54:47.078Z,0.70
2017-11-30T02:57:13.443Z,0.60
2017-11-30T02:59:39.785Z,0.60
2017-11-30T03:02:06.987Z,0.90
2017-11-30T03:04:33.921Z,0.90
2017-11-30T03:07:00.243Z,1.10
2017-11-30T03:09:27.508Z,1.10
2017-11-30T03:11:55.682Z,1.00
2017-11-30T03:14:22.245Z,0.90
2017-11-30T03:16:48.664Z,0.90
2017-11-30T03:19:14.970Z,0.90
2017-11-30T03:21:41.458Z,0.80
2017-11-30T03:24:08.513Z,0.60
2017-11-30T03:26:35.633Z,0.50
2017-11-30T03:29:02.160Z,0.40
2017-11-30T03:31:28.479Z,0.40
2017-11-30T03:33:54.938Z,0.40
2017-11-30T03:36:22.096Z,0.30
2017-11-30T03:38:49.370Z,0.20
2017-11-30T03:41:15.926Z,0.10
2017-11-30T03:43:42.669Z,0.30
2017-11-30T03:46:08.985Z,0.20
2017-11-30T03:48:35.366Z,0.20
2017-11-30T03:51:03.586Z,0.20
2017-11-30T03:53:30.052Z,0.30
2017-11-30T03:55:56.771Z,0.30
2017-11-30T03:58:23.158Z,0.20
2017-11-30T04:00:51.202Z,0.20
2017-11-30T04:03:17.550Z,0.20
2017-11-30T04:05:43.842Z,0.30
2017-11-30T04:08:10.226Z,0.50
2017-11-30T04:10:37.561Z,0.60
2017-11-30T04:13:03.926Z,0.60
2017-11-30T04:15:30.349Z,0.60
2017-11-30T04:17:56.778Z,0.70
2017-11-30T04:20:23.094Z,0.80
2017-11-30T04:22:51.025Z,1.20
2017-11-30T04:25:18.203Z,1.20
2017-11-30T04:27:45.279Z,1.50
2017-11-30T04:30:11.593Z,1.50
2017-11-30T04:32:38.774Z,1.80
2017-11-30T04:35:06.495Z,1.80
2017-11-30T04:37:33.333Z,1.80
2017-11-30T04:40:01.314Z,1.90
2017-11-30T04:42:27.780Z,1.90
2017-11-30T04:44:54.094Z,1.90
2017-11-30T04:47:21.561Z,2.00
2017-11-30T04:49:48.689Z,2.20
2017-11-30T04:52:15.010Z,2.20
2017-11-30T04:54:41.366Z,2.30
2017-11-30T04:57:07.665Z,2.40
2017-11-30T04:59:33.986Z,2.50
2017-11-30T05:02:01.046Z,2.60
2017-11-30T05:04:27.341Z,2.60
2017-11-30T05:06:53.714Z,2.70
2017-11-30T05:09:20.079Z,2.70
2017-11-30T05:11:46.430Z,2.80
2017-11-30T05:14:12.754Z,2.80
2017-11-30T05:16:39.800Z,2.80
2017-11-30T05:19:06.110Z,2.80
2017-11-30T05:21:32.433Z,2.90
2017-11-30T05:24:13.642Z,2.90
2017-11-30T05:26:40.011Z,2.90
2017-11-30T05:29:06.334Z,2.90
2017-11-30T05:31:32.718Z,2.90
2017-11-30T05:33:59.043Z,3.00
2017-11-30T05:36:25.365Z,3.00
2017-11-30T05:38:51.714Z,3.00
2017-11-30T05:41:18.779Z,3.00
2017-11-30T05:43:46.213Z,3.10
2017-11-30T05:46:12.515Z,3.00
2017-11-30T05:48:39.009Z,3.10
2017-11-30T05:51:06.093Z,3.10
2017-11-30T05:53:33.166Z,3.00
2017-11-30T05:55:59.638Z,3.00
2017-11-30T05:58:26.910Z,2.90
2017-11-30T06:00:53.266Z,2.80
2017-11-30T06:03:19.751Z,2.80
2017-11-30T06:05:47.030Z,2.60
2017-11-30T06:08:13.416Z,2.60
2017-11-30T06:10:39.802Z,2.70
2017-11-30T06:13:06.201Z,2.80
2017-11-30T06:15:32.613Z,2.70
2017-11-30T06:17:59.717Z,2.40
2017-11-30T06:20:27.451Z,2.40
2017-11-30T06:22:53.952Z,2.30
2017-11-30T06:25:20.506Z,2.20
2017-11-30T06:27:49.518Z,1.90
2017-11-30T06:30:16.065Z,1.90
2017-11-30T06:32:43.413Z,1.80
2017-11-30T06:35:09.919Z,1.70
2017-11-30T06:37:37.022Z,1.80
2017-11-30T06:40:03.557Z,1.80
2017-11-30T06:42:29.885Z,1.90
2017-11-30T06:44:56.233Z,1.90
2017-11-30T06:47:22.605Z,2.00
2017-11-30T06:49:49.163Z,2.00
2017-11-30T06:52:15.431Z,1.90
2017-11-30T06:54:41.924Z,1.80
2017-11-30T06:57:08.281Z,1.70
2017-11-30T06:59:36.227Z,1.60
2017-11-30T07:02:02.526Z,1.60
2017-11-30T07:04:28.814Z,1.60
2017-11-30T07:06:56.129Z,1.50
2017-11-30T07:09:23.470Z,1.40
2017-11-30T07:11:49.825Z,1.40
2017-11-30T07:14:16.298Z,1.30
2017-11-30T07:16:43.430Z,1.40
2017-11-30T07:19:09.753Z,1.30
2017-11-30T07:21:36.113Z,1.40
2017-11-30T07:24:03.596Z,1.60
2017-11-30T07:26:30.019Z,1.50
2017-11-30T07:28:56.510Z,1.70
2017-11-30T07:31:23.737Z,1.90
2017-11-30T07:33:50.178Z,1.90
2017-11-30T07:36:16.485Z,2.00
2017-11-30T07:38:42.879Z,2.10
2017-11-30T07:41:09.185Z,2.10
2017-11-30T07:43:35.518Z,2.20
2017-11-30T07:46:01.822Z,2.10
2017-11-30T07:48:28.167Z,2.00
2017-11-30T07:50:54.461Z,2.10
2017-11-30T07:53:20.739Z,2.10
2017-11-30T07:55:48.441Z,2.10
2017-11-30T07:58:14.755Z,2.10
2017-11-30T08:00:41.101Z,2.10
2017-11-30T08:03:07.558Z,2.20
2017-11-30T08:05:34.014Z,2.60
2017-11-30T08:08:00.969Z,3.20
2017-11-30T08:10:28.061Z,3.30
2017-11-30T08:12:54.420Z,3.30
2017-11-30T08:15:20.741Z,3.30
2017-11-30T08:17:47.074Z,3.20
2017-11-30T08:20:13.445Z,3.30
2017-11-30T08:22:39.901Z,3.30
2017-11-30T08:25:06.201Z,3.50
2017-11-30T08:27:33.271Z,3.80
2017-11-30T08:29:59.710Z,3.80
2017-11-30T08:32:26.013Z,3.90
2017-11-30T08:34:52.373Z,3.90
2017-11-30T08:37:18.669Z,3.90
2017-11-30T08:39:45.022Z,4.00
2017-11-30T08:42:11.315Z,4.10
2017-11-30T08:44:38.778Z,4.60
2017-11-30T08:47:05.845Z,4.90
2017-11-30T08:49:32.178Z,4.90
2017-11-30T08:51:58.541Z,5.00
2017-11-30T08:54:25.205Z,5.10
2017-11-30T08:56:52.327Z,5.20
2017-11-30T08:59:18.787Z,5.20
2017-11-30T09:01:45.873Z,5.40
2017-11-30T09:04:12.909Z,5.50
2017-11-30T09:06:39.358Z,5.50
2017-11-30T09:09:05.685Z,5.80
2017-11-30T09:11:32.067Z,6.00
2017-11-30T09:13:59.189Z,6.30
2017-11-30T09:16:25.682Z,6.30
2017-11-30T09:18:52.020Z,6.30
2017-11-30T09:21:18.392Z,6.30
2017-11-30T09:23:44.752Z,6.30
2017-11-30T09:26:11.118Z,6.40
2017-11-30T09:28:37.594Z,6.50
2017-11-30T09:31:04.152Z,6.50
2017-11-30T09:33:31.361Z,6.40
2017-11-30T09:35:57.713Z,6.40
2017-11-30T09:38:24.152Z,6.50
2017-11-30T09:40:50.541Z,6.60
2017-11-30T09:43:16.866Z,6.50
2017-11-30T09:45:43.242Z,6.40
2017-11-30T09:48:14.511Z,6.40
2017-11-30T09:56:36.505Z,6.30
2017-11-30T09:59:03.045Z,6.30
2017-11-30T10:01:29.456Z,6.30
2017-11-30T10:03:55.825Z,6.10
2017-11-30T10:06:22.882Z,6.00
2017-11-30T10:08:49.221Z,5.90
2017-11-30T10:11:16.215Z,5.70
2017-11-30T10:13:42.582Z,5.70
2017-11-30T10:16:10.495Z,5.80
2017-11-30T10:18:36.847Z,5.80
2017-11-30T10:21:03.390Z,5.70
2017-11-30T10:23:29.705Z,5.80
2017-11-30T10:25:56.062Z,5.80
2017-11-30T10:28:22.424Z,5.90
2017-11-30T10:30:48.847Z,5.90
2017-11-30T10:33:15.830Z,6.00
2017-11-30T10:35:42.883Z,6.00
2017-11-30T10:38:09.218Z,6.00
2017-11-30T10:40:36.279Z,6.00
2017-11-30T10:43:03.097Z,6.00
2017-11-30T10:45:29.576Z,6.10
2017-11-30T10:47:56.221Z,6.30
2017-11-30T10:50:23.209Z,6.60
2017-11-30T10:52:49.643Z,6.60
2017-11-30T10:55:16.035Z,6.70
2017-11-30T10:57:43.268Z,6.70
2017-11-30T11:00:09.737Z,6.70
2017-11-30T11:02:36.251Z,6.70
2017-11-30T11:05:04.048Z,6.40
2017-11-30T11:07:34.504Z,6.40
2017-11-30T11:10:00.772Z,6.50
2017-11-30T11:12:27.750Z,6.60
2017-11-30T11:14:54.019Z,6.60
2017-11-30T11:17:21.241Z,6.50
2017-11-30T11:19:48.685Z,6.40
2017-11-30T11:22:15.154Z,6.40
2017-11-30T11:24:41.494Z,6.40
2017-11-30T11:27:07.894Z,6.40
2017-11-30T11:29:35.364Z,6.50
2017-11-30T11:32:01.768Z,6.60
2017-11-30T11:34:28.088Z,6.50
2017-11-30T11:36:56.185Z,6.60
2017-11-30T11:39:22.606Z,6.60
2017-11-30T11:41:49.048Z,6.70
2017-11-30T11:44:15.524Z,6.70
2017-11-30T11:46:41.818Z,6.70
2017-11-30T11:49:08.199Z,6.80
2017-11-30T11:51:34.756Z,7.00
2017-11-30T11:54:01.123Z,6.90
2017-11-30T11:56:27.376Z,7.00
2017-11-30T11:58:54.580Z,7.20
2017-11-30T12:01:20.993Z,7.10
2017-11-30T12:03:48.051Z,7.20
2017-11-30T12:06:14.314Z,7.10
2017-11-30T12:08:40.733Z,6.90
2017-11-30T12:11:07.797Z,6.80
2017-11-30T12:13:34.923Z,6.60
2017-11-30T12:16:01.200Z,6.50
2017-11-30T12:18:27.943Z,6.50
2017-11-30T12:20:54.322Z,6.40
2017-11-30T12:23:20.692Z,6.30
2017-11-30T12:25:47.124Z,6.20
2017-11-30T12:28:13.520Z,6.10
2017-11-30T12:30:40.525Z,5.90
2017-11-30T12:33:07.007Z,5.90
2017-11-30T12:35:33.402Z,5.80
2017-11-30T12:37:59.903Z,5.80
2017-11-30T12:40:26.275Z,5.90
2017-11-30T12:42:53.235Z,5.80
2017-11-30T12:45:19.669Z,5.80
2017-11-30T12:47:46.605Z,5.80
2017-11-30T12:50:13.240Z,5.80
2017-11-30T12:52:39.839Z,5.80
2017-11-30T12:55:07.244Z,5.90
2017-11-30T12:57:36.823Z,6.00
2017-11-30T13:00:04.652Z,6.10
2017-11-30T13:02:31.854Z,6.30
2017-11-30T13:04:59.979Z,6.40
2017-11-30T13:07:27.384Z,6.40
2017-11-30T13:09:54.386Z,6.40
2017-11-30T13:12:21.677Z,6.70
2017-11-30T13:14:48.709Z,6.70
2017-11-30T13:17:15.326Z,6.70
2017-11-30T13:19:41.908Z,6.70
2017-11-30T13:22:08.223Z,6.60
2017-11-30T13:24:35.572Z,6.70
2017-11-30T13:27:04.344Z,6.70
2017-11-30T13:29:32.260Z,6.70
2017-11-30T13:32:00.255Z,6.60
2017-11-30T13:34:26.774Z,6.70
2017-11-30T13:36:53.117Z,6.60
2017-11-30T13:39:19.553Z,6.50
2017-11-30T13:41:45.895Z,6.60
2017-11-30T13:44:12.163Z,6.50
2017-11-30T13:46:39.615Z,6.40
2017-11-30T13:49:05.883Z,6.30
2017-11-30T13:51:33.383Z,6.20
2017-11-30T13:54:00.549Z,6.10
2017-11-30T13:56:26.963Z,6.00
2017-11-30T13:58:54.688Z,6.00
2017-11-30T14:01:21.334Z,6.00
2017-11-30T14:03:47.675Z,6.00
2017-11-30T14:06:13.924Z,6.00
2017-11-30T14:08:40.638Z,6.10
2017-11-30T14:11:07.087Z,6.00
2017-11-30T14:13:34.263Z,5.90
2017-11-30T14:16:00.712Z,5.80
2017-11-30T14:18:27.988Z,5.70
2017-11-30T14:20:56.369Z,5.60
2017-11-30T14:23:23.006Z,5.60
2017-11-30T14:25:49.300Z,5.70
2017-11-30T14:28:16.451Z,5.60
2017-11-30T14:30:43.687Z,5.50
2017-11-30T14:33:10.207Z,5.40
2017-11-30T14:35:36.592Z,5.30
2017-11-30T14:38:03.153Z,5.30
2017-11-30T14:40:29.686Z,5.20
2017-11-30T14:42:57.488Z,5.10
2017-11-30T14:45:24.748Z,5.00
2017-11-30T14:47:51.905Z,5.10
2017-11-30T14:50:18.317Z,5.10
2017-11-30T14:52:44.626Z,5.10
2017-11-30T14:55:11.604Z,4.90
2017-11-30T14:57:38.739Z,5.00
2017-11-30T15:00:05.954Z,5.00
2017-11-30T15:02:32.392Z,5.00
2017-11-30T15:04:58.932Z,4.90
2017-11-30T15:07:25.324Z,4.70
2017-11-30T15:09:51.613Z,4.70
2017-11-30T15:12:18.633Z,4.60
2017-11-30T15:17:36.889Z,4.40
2017-11-30T15:20:03.098Z,4.40
2017-11-30T15:22:29.730Z,4.30
2017-11-30T15:24:57.858Z,4.30
2017-11-30T15:27:24.076Z,4.30
2017-11-30T15:29:51.139Z,4.20
2017-11-30T15:32:18.154Z,4.10
2017-11-30T15:34:44.310Z,4.10
2017-11-30T15:37:11.196Z,4.00
2017-11-30T15:39:37.417Z,4.00
2017-11-30T15:42:03.607Z,3.90
2017-11-30T15:44:30.745Z,4.20
2017-11-30T15:46:57.661Z,4.20
2017-11-30T15:49:23.849Z,4.20
2017-11-30T15:51:50.143Z,4.30
2017-11-30T15:54:16.297Z,4.30
2017-11-30T15:56:42.444Z,4.50
2017-11-30T15:59:08.851Z,4.60
2017-11-30T16:01:35.015Z,4.70
2017-11-30T16:04:01.272Z,4.80
2017-11-30T16:06:28.474Z,4.70
2017-11-30T16:08:54.974Z,4.70
2017-11-30T16:11:21.229Z,4.80
2017-11-30T16:13:47.908Z,4.70
2017-11-30T16:16:14.341Z,4.70
2017-11-30T16:18:41.809Z,4.60
2017-11-30T16:21:10.421Z,4.60
2017-11-30T16:23:37.152Z,4.60
2017-11-30T16:26:03.444Z,4.60
2017-11-30T16:28:29.817Z,4.60
2017-11-30T16:30:57.245Z,4.70
2017-11-30T16:33:24.736Z,4.70
2017-11-30T16:35:51.637Z,4.60
2017-11-30T16:38:18.727Z,4.80
2017-11-30T16:40:44.869Z,4.80
2017-11-30T16:43:11.137Z,4.90
2017-11-30T16:45:37.264Z,4.80
2017-11-30T16:48:04.381Z,4.80
2017-11-30T16:50:30.537Z,4.80
2017-11-30T16:52:57.543Z,4.80
2017-11-30T16:55:23.733Z,4.80
2017-11-30T16:57:49.954Z,4.80
2017-11-30T17:00:16.096Z,4.70
2017-11-30T17:02:42.874Z,4.70
2017-11-30T17:05:09.821Z,4.60
2017-11-30T17:07:37.458Z,4.80
2017-11-30T17:10:05.548Z,4.80
2017-11-30T17:12:31.849Z,4.80
2017-11-30T17:14:58.216Z,4.80
2017-11-30T17:17:24.832Z,4.80
2017-11-30T17:19:51.097Z,4.80
2017-11-30T17:22:18.422Z,4.80
2017-11-30T17:24:44.657Z,4.80
2017-11-30T17:27:11.110Z,4.80
2017-11-30T17:29:38.377Z,4.80
2017-11-30T17:32:05.458Z,4.70
2017-11-30T17:34:31.961Z,4.80
2017-11-30T17:36:58.323Z,4.70
2017-11-30T17:39:24.748Z,4.80
2017-11-30T17:41:52.000Z,4.90
2017-11-30T17:44:18.321Z,4.80
2017-11-30T17:46:44.832Z,4.70
2017-11-30T17:49:11.861Z,4.80
2017-11-30T17:51:39.268Z,4.70
2017-11-30T17:54:05.729Z,4.70
2017-11-30T17:56:31.916Z,4.60
2017-11-30T17:58:58.178Z,4.60
2017-11-30T18:01:24.450Z,4.50
2017-11-30T18:03:51.421Z,4.50
2017-11-30T18:06:17.756Z,4.50
2017-11-30T18:08:44.132Z,4.30
2017-11-30T18:11:11.204Z,4.10
2017-11-30T18:13:37.546Z,4.10
2017-11-30T18:16:03.956Z,4.00
2017-11-30T18:18:31.068Z,4.00
2017-11-30T18:20:57.215Z,4.00
2017-11-30T18:23:24.140Z,4.20
2017-11-30T18:25:50.461Z,4.20
2017-11-30T18:28:17.520Z,4.20
2017-11-30T18:30:44.497Z,4.20
2017-11-30T18:33:12.726Z,4.20
2017-11-30T18:35:40.153Z,4.10
2017-11-30T18:38:06.459Z,4.10
2017-11-30T18:40:36.136Z,4.00
2017-11-30T18:43:02.730Z,4.10
2017-11-30T18:45:29.229Z,4.10
2017-11-30T18:47:55.781Z,4.10
2017-11-30T18:50:22.912Z,4.20
2017-11-30T18:52:49.573Z,4.20
2017-11-30T18:55:15.891Z,4.30
2017-11-30T18:57:43.406Z,4.20
2017-11-30T19:00:09.954Z,4.20
2017-11-30T19:02:37.334Z,4.40
2017-11-30T19:05:03.897Z,4.40
2017-11-30T19:07:30.430Z,4.40
2017-11-30T19:09:56.868Z,4.30
2017-11-30T19:12:23.365Z,4.30
2017-11-30T19:14:49.833Z,4.40
2017-11-30T19:17:16.062Z,4.40
2017-11-30T19:19:43.079Z,4.30
2017-11-30T19:22:10.171Z,4.20
2017-11-30T19:24:36.496Z,4.20
2017-11-30T19:27:02.800Z,4.20
2017-11-30T19:29:28.981Z,4.20
2017-11-30T19:31:56.160Z,4.20
2017-11-30T19:34:22.327Z,4.20
2017-11-30T19:36:48.565Z,4.20
2017-11-30T19:39:14.994Z,4.20
2017-11-30T19:41:41.328Z,4.20
2017-11-30T19:47:00.660Z,4.20
2017-11-30T19:49:27.779Z,4.20
2017-11-30T19:51:54.776Z,4.20
2017-11-30T19:54:21.438Z,4.20
2017-11-30T19:56:48.471Z,4.30
2017-11-30T19:59:14.782Z,4.30
2017-11-30T20:01:41.071Z,4.40
2017-11-30T20:04:07.333Z,4.40
2017-11-30T20:06:34.099Z,4.40
2017-11-30T20:09:00.600Z,4.30
2017-11-30T20:11:27.047Z,4.30
2017-11-30T20:13:53.463Z,4.30
2017-11-30T20:16:19.770Z,4.30
2017-11-30T20:18:46.019Z,4.50
2017-11-30T20:21:12.304Z,4.40
2017-11-30T20:23:40.045Z,4.30
2017-11-30T20:26:06.310Z,4.30
2017-11-30T20:28:33.303Z,4.30
2017-11-30T20:31:00.948Z,4.30
2017-11-30T20:33:27.203Z,4.30
2017-11-30T20:35:53.479Z,4.30
2017-11-30T20:38:20.707Z,4.30
2017-11-30T20:40:47.734Z,4.30
2017-11-30T20:43:13.978Z,4.20
2017-11-30T20:45:41.084Z,4.30
2017-11-30T20:48:07.339Z,4.20
2017-11-30T20:50:33.620Z,4.20
2017-11-30T20:52:59.913Z,4.30
2017-11-30T20:55:26.882Z,4.30
2017-11-30T20:57:53.151Z,4.30
2017-11-30T21:00:19.453Z,4.20
2017-11-30T21:02:46.944Z,4.30
2017-11-30T21:05:13.337Z,4.30
2017-11-30T21:07:39.815Z,4.10
2017-11-30T21:10:07.684Z,4.20
2017-11-30T21:12:34.364Z,4.20
2017-11-30T21:15:01.881Z,4.20
2017-11-30T21:17:29.116Z,4.20
2017-11-30T21:19:55.414Z,4.30
2017-11-30T21:22:21.873Z,4.20
2017-11-30T21:24:48.524Z,4.30
2017-11-30T21:27:14.979Z,4.00
2017-11-30T21:29:41.980Z,3.90
2017-11-30T21:32:08.419Z,3.90
2017-11-30T21:34:36.103Z,3.90
2017-11-30T21:37:03.842Z,4.00
2017-11-30T21:39:30.923Z,3.90
2017-11-30T21:41:58.225Z,3.80
2017-11-30T21:44:24.700Z,3.80
2017-11-30T21:46:51.593Z,3.80
2017-11-30T21:49:17.840Z,3.70
2017-11-30T21:51:45.157Z,3.70
2017-11-30T21:54:12.593Z,3.70
2017-11-30T21:56:39.740Z,3.90
2017-11-30T21:59:06.767Z,4.00
2017-11-30T22:01:33.387Z,4.00
2017-11-30T22:04:01.034Z,3.90
2017-11-30T22:06:27.859Z,3.90
2017-11-30T22:08:54.259Z,3.80
2017-11-30T22:11:20.725Z,3.90
2017-11-30T22:13:47.523Z,3.70
2017-11-30T22:16:15.536Z,3.60
2017-11-30T22:18:43.813Z,3.60
2017-11-30T22:21:10.121Z,3.70
2017-11-30T22:23:39.583Z,3.70
2017-11-30T22:26:06.087Z,3.70
2017-11-30T22:28:32.734Z,3.70
2017-11-30T22:31:01.503Z,3.80
2017-11-30T22:33:28.243Z,3.70
2017-11-30T22:35:54.803Z,3.70
2017-11-30T22:38:21.215Z,3.70
2017-11-30T22:40:48.233Z,3.70
2017-11-30T22:43:17.525Z,3.80
2017-11-30T22:45:45.146Z,3.80
2017-11-30T22:48:13.365Z,3.70
2017-11-30T22:50:40.808Z,3.70
2017-11-30T22:53:07.175Z,3.70
2017-11-30T22:55:33.904Z,3.70
2017-11-30T22:58:00.451Z,3.60
2017-11-30T23:00:42.063Z,3.60
2017-11-30T23:03:10.293Z,3.40
2017-11-30T23:05:37.231Z,3.40
2017-11-30T23:08:04.933Z,3.30
2017-11-30T23:10:32.900Z,3.30
2017-11-30T23:12:59.333Z,3.20
2017-11-30T23:15:26.679Z,3.20
2017-11-30T23:17:54.326Z,3.10
2017-11-30T23:20:20.873Z,3.10
2017-11-30T23:22:47.644Z,3.00
2017-11-30T23:25:15.868Z,2.90
2017-11-30T23:27:42.363Z,2.90
2017-11-30T23:30:11.793Z,2.70
2017-11-30T23:32:39.262Z,2.70
2017-11-30T23:35:05.879Z,2.60
2017-11-30T23:37:33.942Z,2.50
2017-11-30T23:40:00.460Z,2.50
2017-11-30T23:42:27.847Z,2.60
2017-11-30T23:44:54.121Z,2.60
2017-11-30T23:47:20.410Z,2.60
2017-11-30T23:49:47.507Z,2.50
2017-11-30T23:52:14.131Z,2.30
2017-11-30T23:54:40.461Z,2.30
2017-11-30T23:57:08.060Z,2.30
2017-11-30T23:59:34.553Z,2.20
